Bruno, MN (55712)

10:20 AM CST on December 22, 2014 (GMT -0600)
Coffee Lake | Change Station
CLOSE
Current Station
Personal Weather Station
Location: Moose Lake Twp., MN
Elevation: 1060 ft
Nearby Weather Stations

Elev 1060 ft 46.43 °N, 92.78 °W | Updated 15 seconds ago

Fog
Fog
34.5 °F
Feels Like 30 °F
N
4.9
Wind Variable Wind from SSE
Gusts 7.4 mph

Today
High -- | Low -- °F
--% Chance of Precip.
Yesterday
High -- | Low -- °F
Precip. -- in
7:50 AM 4:27 PM
New Moon, 1% visible
Pressure 29.67 in
Visibility 2.0 miles
Clouds Overcast 500 ft
Windchill 30 °F
Dew Point 33 °F
Humidity 93%
Rainfall 0.07 in
Snow Depth Not available.
UV 0 out of 12
Pollen .10 out of 12
Air Quality Not available.
Flu Activity Not available.
METAR KMZH 221613Z AUTO 00000KT 2SM BR OVC005 01/01 A2967 RMK AO2

More Conditions Fewer Conditions

Pressure 29.67 in
Visibility 2.0 miles
Clouds Overcast 500 ft
Windchill 30 °F
Dew Point 33 °F
Humidity 93%
Rainfall 0.07 in
Snow Depth Not available.
UV 0 out of 12
Pollen .10 out of 12
Air Quality Not available.
Flu Activity Not available.
METAR KMZH 221613Z AUTO 00000KT 2SM BR OVC005 01/01 A2967 RMK AO2

More Conditions Fewer Conditions

10-Day Weather Forecast

Almanac

Astronomy

Dec. 22, 2014 Rise Set
Actual Time
Civil Twilight
Nautical Twilight
Astronomical Twilight
Moon
Length of Visible Light
Length of Day
Tomorrow will be .
, % of the Moon is Illuminated

Today's Extremes

State Highs State Lows

Community

WunderPhotos

Upload Photos

1,779,632 photos uploaded!

WunderBlogs® & News

Nearby

Air Quality

  Air Quality AQ Index Pollutant
Not available.

Snow Depth

Station Depth Elevation

Earthquake Activity

City Distance Mag. Time & Date
Minimum magnitude displayed is 2.5.

Coastal Water Temperatures

Place Temperature

Nearby Weather Stations